sensor_id;sensor_type;location;lat;lon;timestamp;temperature;humidity
20911;DHT22;10615;42.702;23.314;2023-05-18T00:00:35;14.10;99.90
20911;DHT22;10615;42.702;23.314;2023-05-18T00:01:36;14.10;99.90
20911;DHT22;10615;42.702;23.314;2023-05-18T00:02:40;14.10;99.90
20911;DHT22;10615;42.702;23.314;2023-05-18T00:03:41;14.10;99.90
20911;DHT22;10615;42.702;23.314;2023-05-18T00:04:42;14.10;99.90
20911;DHT22;10615;42.702;23.314;2023-05-18T00:05:43;14.10;99.90
20911;DHT22;10615;42.702;23.314;2023-05-18T00:06:44;14.10;99.90
20911;DHT22;10615;42.702;23.314;2023-05-18T00:07:45;14.10;99.90
20911;DHT22;10615;42.702;23.314;2023-05-18T00:08:46;14.00;99.90
20911;DHT22;10615;42.702;23.314;2023-05-18T00:09:46;14.00;99.90
20911;DHT22;10615;42.702;23.314;2023-05-18T00:10:47;14.00;99.90
20911;DHT22;10615;42.702;23.314;2023-05-18T00:11:48;14.00;99.90
20911;DHT22;10615;42.702;23.314;2023-05-18T00:12:48;13.90;99.90
20911;DHT22;10615;42.702;23.314;2023-05-18T00:13:49;13.90;99.90
20911;DHT22;10615;42.702;23.314;2023-05-18T00:14:50;13.90;99.90
20911;DHT22;10615;42.702;23.314;2023-05-18T00:15:50;13.90;99.90
20911;DHT22;10615;42.702;23.314;2023-05-18T00:16:51;13.90;99.90
20911;DHT22;10615;42.702;23.314;2023-05-18T00:17:53;13.90;99.90
20911;DHT22;10615;42.702;23.314;2023-05-18T00:18:53;13.90;99.90
20911;DHT22;10615;42.702;23.314;2023-05-18T00:19:55;13.90;99.90
20911;DHT22;10615;42.702;23.314;2023-05-18T00:20:57;13.90;99.90
20911;DHT22;10615;42.702;23.314;2023-05-18T00:21:59;13.90;99.90
20911;DHT22;10615;42.702;23.314;2023-05-18T00:23:01;13.90;99.90
20911;DHT22;10615;42.702;23.314;2023-05-18T00:24:02;13.90;99.90
20911;DHT22;10615;42.702;23.314;2023-05-18T00:25:04;13.90;99.90
20911;DHT22;10615;42.702;23.314;2023-05-18T00:26:04;13.90;99.90
20911;DHT22;10615;42.702;23.314;2023-05-18T00:27:05;13.90;99.90
20911;DHT22;10615;42.702;23.314;2023-05-18T00:28:06;13.90;99.90
20911;DHT22;10615;42.702;23.314;2023-05-18T00:29:07;14.00;99.90
20911;DHT22;10615;42.702;23.314;2023-05-18T00:30:08;14.00;99.90
20911;DHT22;10615;42.702;23.314;2023-05-18T00:31:09;14.00;99.90
20911;DHT22;10615;42.702;23.314;2023-05-18T00:32:10;14.00;99.90
20911;DHT22;10615;42.702;23.314;2023-05-18T00:33:11;13.90;99.90
20911;DHT22;10615;42.702;23.314;2023-05-18T00:34:13;13.90;99.90
20911;DHT22;10615;42.702;23.314;2023-05-18T00:35:14;13.90;99.90
20911;DHT22;10615;42.702;23.314;2023-05-18T00:36:14;13.90;99.90
20911;DHT22;10615;42.702;23.314;2023-05-18T00:37:15;13.90;99.90
20911;DHT22;10615;42.702;23.314;2023-05-18T00:38:16;13.90;99.90
20911;DHT22;10615;42.702;23.314;2023-05-18T00:39:17;13.90;99.90
20911;DHT22;10615;42.702;23.314;2023-05-18T00:40:18;13.90;99.90
20911;DHT22;10615;42.702;23.314;2023-05-18T00:41:19;13.90;99.90
20911;DHT22;10615;42.702;23.314;2023-05-18T00:42:20;13.80;99.90
20911;DHT22;10615;42.702;23.314;2023-05-18T00:43:21;13.80;99.90
20911;DHT22;10615;42.702;23.314;2023-05-18T00:44:22;13.80;99.90
20911;DHT22;10615;42.702;23.314;2023-05-18T00:45:22;13.80;99.90
20911;DHT22;10615;42.702;23.314;2023-05-18T00:46:25;13.80;99.90
20911;DHT22;10615;42.702;23.314;2023-05-18T00:47:26;13.80;99.90
20911;DHT22;10615;42.702;23.314;2023-05-18T00:48:26;13.80;99.90
20911;DHT22;10615;42.702;23.314;2023-05-18T00:49:27;13.80;99.90
20911;DHT22;10615;42.702;23.314;2023-05-18T00:50:28;13.80;99.90
20911;DHT22;10615;42.702;23.314;2023-05-18T00:51:31;13.70;99.90
20911;DHT22;10615;42.702;23.314;2023-05-18T00:52:33;13.70;99.90
20911;DHT22;10615;42.702;23.314;2023-05-18T00:53:35;13.70;99.90
20911;DHT22;10615;42.702;23.314;2023-05-18T00:54:36;13.70;99.90
20911;DHT22;10615;42.702;23.314;2023-05-18T00:55:36;13.70;99.90
20911;DHT22;10615;42.702;23.314;2023-05-18T00:56:37;13.70;99.90
20911;DHT22;10615;42.702;23.314;2023-05-18T00:57:41;13.70;99.90
20911;DHT22;10615;42.702;23.314;2023-05-18T00:58:44;13.70;99.90
20911;DHT22;10615;42.702;23.314;2023-05-18T00:59:45;13.70;99.90
20911;DHT22;10615;42.702;23.314;2023-05-18T01:00:47;13.70;99.90
20911;DHT22;10615;42.702;23.314;2023-05-18T01:01:47;13.60;99.90
20911;DHT22;10615;42.702;23.314;2023-05-18T01:02:48;13.60;99.90
20911;DHT22;10615;42.702;23.314;2023-05-18T01:03:50;13.60;99.90
20911;DHT22;10615;42.702;23.314;2023-05-18T01:04:55;13.60;99.90
20911;DHT22;10615;42.702;23.314;2023-05-18T01:05:56;13.60;99.90
20911;DHT22;10615;42.702;23.314;2023-05-18T01:06:57;13.60;99.90
20911;DHT22;10615;42.702;23.314;2023-05-18T01:08:06;13.60;99.90
20911;DHT22;10615;42.702;23.314;2023-05-18T01:09:09;13.60;99.90
20911;DHT22;10615;42.702;23.314;2023-05-18T01:10:11;13.60;99.90
20911;DHT22;10615;42.702;23.314;2023-05-18T01:11:47;13.60;99.90
20911;DHT22;10615;42.702;23.314;2023-05-18T01:13:05;13.50;99.90
20911;DHT22;10615;42.702;23.314;2023-05-18T01:15:35;13.50;99.90
20911;DHT22;10615;42.702;23.314;2023-05-18T01:16:46;13.50;99.90
20911;DHT22;10615;42.702;23.314;2023-05-18T01:18:01;13.60;99.90
20911;DHT22;10615;42.702;23.314;2023-05-18T01:21:10;13.60;99.90
20911;DHT22;10615;42.702;23.314;2023-05-18T01:24:42;13.60;99.90
20911;DHT22;10615;42.702;23.314;2023-05-18T01:26:56;13.50;99.90
20911;DHT22;10615;42.702;23.314;2023-05-18T01:28:02;13.50;99.90
20911;DHT22;10615;42.702;23.314;2023-05-18T01:29:08;13.50;99.90
20911;DHT22;10615;42.702;23.314;2023-05-18T01:30:09;13.50;99.90
20911;DHT22;10615;42.702;23.314;2023-05-18T01:31:11;13.50;99.90
20911;DHT22;10615;42.702;23.314;2023-05-18T01:32:20;13.50;99.90
20911;DHT22;10615;42.702;23.314;2023-05-18T01:33:21;13.50;99.90
20911;DHT22;10615;42.702;23.314;2023-05-18T01:34:23;13.50;99.90
20911;DHT22;10615;42.702;23.314;2023-05-18T01:35:24;13.50;99.90
20911;DHT22;10615;42.702;23.314;2023-05-18T01:36:25;13.50;99.90
20911;DHT22;10615;42.702;23.314;2023-05-18T01:37:25;13.50;99.90
20911;DHT22;10615;42.702;23.314;2023-05-18T01:38:27;13.60;99.90
20911;DHT22;10615;42.702;23.314;2023-05-18T01:39:28;13.60;99.90
20911;DHT22;10615;42.702;23.314;2023-05-18T01:40:36;13.60;99.90
20911;DHT22;10615;42.702;23.314;2023-05-18T01:41:44;13.50;99.90
20911;DHT22;10615;42.702;23.314;2023-05-18T01:42:50;13.50;99.90
20911;DHT22;10615;42.702;23.314;2023-05-18T01:44:05;13.60;99.90
20911;DHT22;10615;42.702;23.314;2023-05-18T01:45:14;13.50;99.90
20911;DHT22;10615;42.702;23.314;2023-05-18T01:47:32;13.60;99.90
20911;DHT22;10615;42.702;23.314;2023-05-18T01:48:36;13.60;99.90
20911;DHT22;10615;42.702;23.314;2023-05-18T01:49:44;13.60;99.90
20911;DHT22;10615;42.702;23.314;2023-05-18T01:50:47;13.50;99.90
20911;DHT22;10615;42.702;23.314;2023-05-18T01:51:49;13.50;99.90
20911;DHT22;10615;42.702;23.314;2023-05-18T01:52:57;13.50;99.90
20911;DHT22;10615;42.702;23.314;2023-05-18T01:54:03;13.50;99.90
20911;DHT22;10615;42.702;23.314;2023-05-18T01:55:06;13.50;99.90
20911;DHT22;10615;42.702;23.314;2023-05-18T01:56:09;13.50;99.90
20911;DHT22;10615;42.702;23.314;2023-05-18T01:57:12;13.40;99.90
20911;DHT22;10615;42.702;23.314;2023-05-18T01:58:13;13.40;99.90
20911;DHT22;10615;42.702;23.314;2023-05-18T01:59:14;13.40;99.90
20911;DHT22;10615;42.702;23.314;2023-05-18T02:00:16;13.40;99.90
20911;DHT22;10615;42.702;23.314;2023-05-18T02:01:17;13.40;99.90
20911;DHT22;10615;42.702;23.314;2023-05-18T02:02:19;13.40;99.90
20911;DHT22;10615;42.702;23.314;2023-05-18T02:03:20;13.40;99.90
20911;DHT22;10615;42.702;23.314;2023-05-18T02:04:21;13.40;99.90
20911;DHT22;10615;42.702;23.314;2023-05-18T02:05:21;13.40;99.90
20911;DHT22;10615;42.702;23.314;2023-05-18T02:06:22;13.50;99.90
20911;DHT22;10615;42.702;23.314;2023-05-18T02:07:23;13.50;99.90
20911;DHT22;10615;42.702;23.314;2023-05-18T02:08:23;13.60;99.90
20911;DHT22;10615;42.702;23.314;2023-05-18T02:09:24;13.60;99.90
20911;DHT22;10615;42.702;23.314;2023-05-18T02:10:25;13.60;99.90
20911;DHT22;10615;42.702;23.314;2023-05-18T02:11:25;13.60;99.90
20911;DHT22;10615;42.702;23.314;2023-05-18T02:12:26;13.50;99.90
20911;DHT22;10615;42.702;23.314;2023-05-18T02:13:27;13.60;99.90
20911;DHT22;10615;42.702;23.314;2023-05-18T02:14:28;13.60;99.90
20911;DHT22;10615;42.702;23.314;2023-05-18T02:15:28;13.60;99.90
20911;DHT22;10615;42.702;23.314;2023-05-18T02:16:29;13.60;99.90
20911;DHT22;10615;42.702;23.314;2023-05-18T02:17:36;13.60;99.90
20911;DHT22;10615;42.702;23.314;2023-05-18T02:18:37;13.60;99.90
20911;DHT22;10615;42.702;23.314;2023-05-18T02:19:38;13.60;99.90
20911;DHT22;10615;42.702;23.314;2023-05-18T02:20:38;13.60;99.90
20911;DHT22;10615;42.702;23.314;2023-05-18T02:21:39;13.60;99.90
20911;DHT22;10615;42.702;23.314;2023-05-18T02:22:43;13.60;99.90
20911;DHT22;10615;42.702;23.314;2023-05-18T02:23:43;13.50;99.90
20911;DHT22;10615;42.702;23.314;2023-05-18T02:24:44;13.60;99.90
20911;DHT22;10615;42.702;23.314;2023-05-18T02:25:45;13.50;99.90
20911;DHT22;10615;42.702;23.314;2023-05-18T02:26:46;13.50;99.90
20911;DHT22;10615;42.702;23.314;2023-05-18T02:27:47;13.50;99.90
20911;DHT22;10615;42.702;23.314;2023-05-18T02:28:48;13.60;99.90
20911;DHT22;10615;42.702;23.314;2023-05-18T02:29:48;13.60;99.90
20911;DHT22;10615;42.702;23.314;2023-05-18T02:30:49;13.60;99.90
20911;DHT22;10615;42.702;23.314;2023-05-18T02:31:50;13.60;99.90
20911;DHT22;10615;42.702;23.314;2023-05-18T02:32:50;13.70;99.90
20911;DHT22;10615;42.702;23.314;2023-05-18T02:33:51;13.70;99.90
20911;DHT22;10615;42.702;23.314;2023-05-18T02:34:52;13.60;99.90
20911;DHT22;10615;42.702;23.314;2023-05-18T02:35:53;13.70;99.90
20911;DHT22;10615;42.702;23.314;2023-05-18T02:36:53;13.70;99.90
20911;DHT22;10615;42.702;23.314;2023-05-18T02:37:57;13.70;99.90
20911;DHT22;10615;42.702;23.314;2023-05-18T02:38:57;13.70;99.90
20911;DHT22;10615;42.702;23.314;2023-05-18T02:39:59;13.70;99.90
20911;DHT22;10615;42.702;23.314;2023-05-18T02:40:59;13.70;99.90
20911;DHT22;10615;42.702;23.314;2023-05-18T02:42:00;13.70;99.90
20911;DHT22;10615;42.702;23.314;2023-05-18T02:43:01;13.70;99.90
20911;DHT22;10615;42.702;23.314;2023-05-18T02:44:02;13.70;99.90
20911;DHT22;10615;42.702;23.314;2023-05-18T02:45:03;13.60;99.90
20911;DHT22;10615;42.702;23.314;2023-05-18T02:46:04;13.60;99.90
20911;DHT22;10615;42.702;23.314;2023-05-18T02:47:05;13.60;99.90
20911;DHT22;10615;42.702;23.314;2023-05-18T02:48:06;13.60;99.90
20911;DHT22;10615;42.702;23.314;2023-05-18T02:49:06;13.60;99.90
20911;DHT22;10615;42.702;23.314;2023-05-18T02:50:07;13.60;99.90
20911;DHT22;10615;42.702;23.314;2023-05-18T02:51:08;13.60;99.90
20911;DHT22;10615;42.702;23.314;2023-05-18T02:52:08;13.60;99.90
20911;DHT22;10615;42.702;23.314;2023-05-18T02:53:09;13.60;99.90
20911;DHT22;10615;42.702;23.314;2023-05-18T02:54:10;13.60;99.90
20911;DHT22;10615;42.702;23.314;2023-05-18T02:55:11;13.50;99.90
20911;DHT22;10615;42.702;23.314;2023-05-18T02:56:13;13.50;99.90
20911;DHT22;10615;42.702;23.314;2023-05-18T02:57:13;13.60;99.90
20911;DHT22;10615;42.702;23.314;2023-05-18T02:58:14;13.60;99.90
20911;DHT22;10615;42.702;23.314;2023-05-18T02:59:15;13.50;99.90
20911;DHT22;10615;42.702;23.314;2023-05-18T03:00:16;13.60;99.90
20911;DHT22;10615;42.702;23.314;2023-05-18T03:01:17;13.50;99.90
20911;DHT22;10615;42.702;23.314;2023-05-18T03:02:18;13.60;99.90
20911;DHT22;10615;42.702;23.314;2023-05-18T03:03:20;13.60;99.90
20911;DHT22;10615;42.702;23.314;2023-05-18T03:04:20;13.60;99.90
20911;DHT22;10615;42.702;23.314;2023-05-18T03:05:21;13.60;99.90
20911;DHT22;10615;42.702;23.314;2023-05-18T03:06:23;13.60;99.90
20911;DHT22;10615;42.702;23.314;2023-05-18T03:07:25;13.60;99.90
20911;DHT22;10615;42.702;23.314;2023-05-18T03:08:27;13.70;99.90
20911;DHT22;10615;42.702;23.314;2023-05-18T03:09:28;13.60;99.90
20911;DHT22;10615;42.702;23.314;2023-05-18T03:10:29;13.70;99.90
20911;DHT22;10615;42.702;23.314;2023-05-18T03:11:29;13.70;99.90
20911;DHT22;10615;42.702;23.314;2023-05-18T03:12:30;13.70;99.90
20911;DHT22;10615;42.702;23.314;2023-05-18T03:13:31;13.70;99.90
20911;DHT22;10615;42.702;23.314;2023-05-18T03:14:31;13.80;99.90
20911;DHT22;10615;42.702;23.314;2023-05-18T03:15:32;13.80;99.90
20911;DHT22;10615;42.702;23.314;2023-05-18T03:16:33;13.80;99.90
20911;DHT22;10615;42.702;23.314;2023-05-18T03:17:33;13.80;99.90
20911;DHT22;10615;42.702;23.314;2023-05-18T03:18:34;13.80;99.90
20911;DHT22;10615;42.702;23.314;2023-05-18T03:19:35;13.80;99.90
20911;DHT22;10615;42.702;23.314;2023-05-18T03:20:35;13.80;99.90
20911;DHT22;10615;42.702;23.314;2023-05-18T03:21:37;13.80;99.90
20911;DHT22;10615;42.702;23.314;2023-05-18T03:22:38;13.80;99.90
20911;DHT22;10615;42.702;23.314;2023-05-18T03:23:38;13.80;99.90
20911;DHT22;10615;42.702;23.314;2023-05-18T03:24:40;13.80;99.90
20911;DHT22;10615;42.702;23.314;2023-05-18T03:25:40;13.80;99.90
20911;DHT22;10615;42.702;23.314;2023-05-18T03:26:42;13.80;99.90
20911;DHT22;10615;42.702;23.314;2023-05-18T03:27:43;13.80;99.90
20911;DHT22;10615;42.702;23.314;2023-05-18T03:28:44;13.70;99.90
20911;DHT22;10615;42.702;23.314;2023-05-18T03:29:45;13.80;99.90
20911;DHT22;10615;42.702;23.314;2023-05-18T03:30:45;13.80;99.90
20911;DHT22;10615;42.702;23.314;2023-05-18T03:31:46;13.80;99.90
20911;DHT22;10615;42.702;23.314;2023-05-18T03:32:47;13.80;99.90
20911;DHT22;10615;42.702;23.314;2023-05-18T03:33:47;13.80;99.90
20911;DHT22;10615;42.702;23.314;2023-05-18T03:34:48;13.80;99.90
20911;DHT22;10615;42.702;23.314;2023-05-18T03:35:50;13.80;99.90
20911;DHT22;10615;42.702;23.314;2023-05-18T03:36:51;13.80;99.90
20911;DHT22;10615;42.702;23.314;2023-05-18T03:37:54;13.80;99.90
20911;DHT22;10615;42.702;23.314;2023-05-18T03:38:55;13.80;99.90
20911;DHT22;10615;42.702;23.314;2023-05-18T03:40:07;13.80;99.90
20911;DHT22;10615;42.702;23.314;2023-05-18T03:41:08;13.80;99.90
20911;DHT22;10615;42.702;23.314;2023-05-18T03:42:09;13.70;99.90
20911;DHT22;10615;42.702;23.314;2023-05-18T03:43:10;13.70;99.90
20911;DHT22;10615;42.702;23.314;2023-05-18T03:44:10;13.80;99.90
20911;DHT22;10615;42.702;23.314;2023-05-18T03:45:11;13.70;99.90
20911;DHT22;10615;42.702;23.314;2023-05-18T03:46:12;13.70;99.90
20911;DHT22;10615;42.702;23.314;2023-05-18T03:47:13;13.70;99.90
20911;DHT22;10615;42.702;23.314;2023-05-18T03:48:13;13.80;99.90
20911;DHT22;10615;42.702;23.314;2023-05-18T03:49:14;13.80;99.90
20911;DHT22;10615;42.702;23.314;2023-05-18T03:50:15;13.80;99.90
20911;DHT22;10615;42.702;23.314;2023-05-18T03:51:16;13.80;99.90
20911;DHT22;10615;42.702;23.314;2023-05-18T03:52:16;13.80;99.90
20911;DHT22;10615;42.702;23.314;2023-05-18T03:53:21;13.80;99.90
20911;DHT22;10615;42.702;23.314;2023-05-18T03:54:22;13.80;99.90
20911;DHT22;10615;42.702;23.314;2023-05-18T03:55:24;13.80;99.90
20911;DHT22;10615;42.702;23.314;2023-05-18T03:56:25;13.80;99.90
20911;DHT22;10615;42.702;23.314;2023-05-18T03:57:27;13.80;99.90
20911;DHT22;10615;42.702;23.314;2023-05-18T03:58:28;13.80;99.90
20911;DHT22;10615;42.702;23.314;2023-05-18T03:59:29;13.80;99.90
20911;DHT22;10615;42.702;23.314;2023-05-18T04:00:30;13.80;99.90
20911;DHT22;10615;42.702;23.314;2023-05-18T04:01:31;13.80;99.90
20911;DHT22;10615;42.702;23.314;2023-05-18T04:02:33;13.80;99.90
20911;DHT22;10615;42.702;23.314;2023-05-18T04:03:33;13.70;99.90
20911;DHT22;10615;42.702;23.314;2023-05-18T04:04:34;13.80;99.90
20911;DHT22;10615;42.702;23.314;2023-05-18T04:05:35;13.80;99.90
20911;DHT22;10615;42.702;23.314;2023-05-18T04:06:35;13.80;99.90
20911;DHT22;10615;42.702;23.314;2023-05-18T04:07:37;13.80;99.90
20911;DHT22;10615;42.702;23.314;2023-05-18T04:08:43;13.80;99.90
20911;DHT22;10615;42.702;23.314;2023-05-18T04:09:45;13.80;99.90
20911;DHT22;10615;42.702;23.314;2023-05-18T04:10:46;13.80;99.90
20911;DHT22;10615;42.702;23.314;2023-05-18T04:11:46;13.80;99.90
20911;DHT22;10615;42.702;23.314;2023-05-18T04:12:48;13.80;99.90
20911;DHT22;10615;42.702;23.314;2023-05-18T04:13:48;13.80;99.90
20911;DHT22;10615;42.702;23.314;2023-05-18T04:14:50;13.90;99.90
20911;DHT22;10615;42.702;23.314;2023-05-18T04:15:50;13.90;99.90
20911;DHT22;10615;42.702;23.314;2023-05-18T04:16:51;13.90;99.90
20911;DHT22;10615;42.702;23.314;2023-05-18T04:17:52;13.90;99.90
20911;DHT22;10615;42.702;23.314;2023-05-18T04:18:53;14.00;99.90
20911;DHT22;10615;42.702;23.314;2023-05-18T04:19:54;14.00;99.90
20911;DHT22;10615;42.702;23.314;2023-05-18T04:20:55;14.00;99.90
20911;DHT22;10615;42.702;23.314;2023-05-18T04:21:56;14.00;99.90
20911;DHT22;10615;42.702;23.314;2023-05-18T04:22:57;14.10;99.90
20911;DHT22;10615;42.702;23.314;2023-05-18T04:23:58;14.10;99.90
20911;DHT22;10615;42.702;23.314;2023-05-18T04:24:59;14.00;99.90
20911;DHT22;10615;42.702;23.314;2023-05-18T04:26:01;14.00;99.90
20911;DHT22;10615;42.702;23.314;2023-05-18T04:27:02;14.00;99.90
20911;DHT22;10615;42.702;23.314;2023-05-18T04:28:03;14.00;99.90
20911;DHT22;10615;42.702;23.314;2023-05-18T04:29:04;14.10;99.90
20911;DHT22;10615;42.702;23.314;2023-05-18T04:30:08;14.00;99.90
20911;DHT22;10615;42.702;23.314;2023-05-18T04:31:10;14.10;99.90
20911;DHT22;10615;42.702;23.314;2023-05-18T04:32:13;14.10;99.90
20911;DHT22;10615;42.702;23.314;2023-05-18T04:33:14;14.10;99.90
20911;DHT22;10615;42.702;23.314;2023-05-18T04:34:15;14.10;99.90
20911;DHT22;10615;42.702;23.314;2023-05-18T04:35:17;14.10;99.90
20911;DHT22;10615;42.702;23.314;2023-05-18T04:36:18;14.10;99.90
20911;DHT22;10615;42.702;23.314;2023-05-18T04:37:19;14.20;99.90
20911;DHT22;10615;42.702;23.314;2023-05-18T04:38:20;14.20;99.90
20911;DHT22;10615;42.702;23.314;2023-05-18T04:39:24;14.20;99.90
20911;DHT22;10615;42.702;23.314;2023-05-18T04:40:25;14.20;99.90
20911;DHT22;10615;42.702;23.314;2023-05-18T04:41:25;14.20;99.90
20911;DHT22;10615;42.702;23.314;2023-05-18T04:42:29;14.20;99.90
20911;DHT22;10615;42.702;23.314;2023-05-18T04:43:30;14.30;99.90
20911;DHT22;10615;42.702;23.314;2023-05-18T04:44:31;14.30;99.90
20911;DHT22;10615;42.702;23.314;2023-05-18T04:45:33;14.30;99.90
20911;DHT22;10615;42.702;23.314;2023-05-18T04:46:34;14.40;99.90
20911;DHT22;10615;42.702;23.314;2023-05-18T04:47:39;14.40;99.90
20911;DHT22;10615;42.702;23.314;2023-05-18T04:48:39;14.40;99.90
20911;DHT22;10615;42.702;23.314;2023-05-18T04:49:40;14.40;99.90
20911;DHT22;10615;42.702;23.314;2023-05-18T04:50:41;14.50;99.90
20911;DHT22;10615;42.702;23.314;2023-05-18T04:51:41;14.50;99.90
20911;DHT22;10615;42.702;23.314;2023-05-18T04:52:47;14.60;99.90
20911;DHT22;10615;42.702;23.314;2023-05-18T04:53:48;14.60;99.90
20911;DHT22;10615;42.702;23.314;2023-05-18T04:54:49;14.70;99.90
20911;DHT22;10615;42.702;23.314;2023-05-18T04:55:51;14.70;99.90
20911;DHT22;10615;42.702;23.314;2023-05-18T04:56:52;14.70;99.90
20911;DHT22;10615;42.702;23.314;2023-05-18T04:57:53;14.70;99.90
20911;DHT22;10615;42.702;23.314;2023-05-18T04:58:57;14.60;99.90
20911;DHT22;10615;42.702;23.314;2023-05-18T04:59:58;14.60;99.90
20911;DHT22;10615;42.702;23.314;2023-05-18T05:00:59;14.60;99.90
20911;DHT22;10615;42.702;23.314;2023-05-18T05:02:00;14.60;99.90
20911;DHT22;10615;42.702;23.314;2023-05-18T05:03:01;14.50;99.90
20911;DHT22;10615;42.702;23.314;2023-05-18T05:04:01;14.50;99.90
20911;DHT22;10615;42.702;23.314;2023-05-18T05:05:03;14.50;99.90
20911;DHT22;10615;42.702;23.314;2023-05-18T05:06:04;14.40;99.90
20911;DHT22;10615;42.702;23.314;2023-05-18T05:07:05;14.40;99.90
20911;DHT22;10615;42.702;23.314;2023-05-18T05:08:05;14.40;99.90
20911;DHT22;10615;42.702;23.314;2023-05-18T05:09:06;14.40;99.90
20911;DHT22;10615;42.702;23.314;2023-05-18T05:10:08;14.40;99.90
20911;DHT22;10615;42.702;23.314;2023-05-18T05:11:09;14.40;99.90
20911;DHT22;10615;42.702;23.314;2023-05-18T05:12:10;14.40;99.90
20911;DHT22;10615;42.702;23.314;2023-05-18T05:13:10;14.30;99.90
20911;DHT22;10615;42.702;23.314;2023-05-18T05:14:11;14.40;99.90
20911;DHT22;10615;42.702;23.314;2023-05-18T05:15:12;14.40;99.90
20911;DHT22;10615;42.702;23.314;2023-05-18T05:16:13;14.40;99.90
20911;DHT22;10615;42.702;23.314;2023-05-18T05:17:13;14.40;99.90
20911;DHT22;10615;42.702;23.314;2023-05-18T05:18:14;14.40;99.90
20911;DHT22;10615;42.702;23.314;2023-05-18T05:19:15;14.40;99.90
20911;DHT22;10615;42.702;23.314;2023-05-18T05:20:16;14.40;99.90
20911;DHT22;10615;42.702;23.314;2023-05-18T05:21:17;14.40;99.90
20911;DHT22;10615;42.702;23.314;2023-05-18T05:22:17;14.40;99.90
20911;DHT22;10615;42.702;23.314;2023-05-18T05:23:19;14.50;99.90
20911;DHT22;10615;42.702;23.314;2023-05-18T05:24:19;14.40;99.90
20911;DHT22;10615;42.702;23.314;2023-05-18T05:25:20;14.40;99.90
20911;DHT22;10615;42.702;23.314;2023-05-18T05:26:21;14.50;99.90
20911;DHT22;10615;42.702;23.314;2023-05-18T05:27:22;14.40;99.90
20911;DHT22;10615;42.702;23.314;2023-05-18T05:28:25;14.40;99.90
20911;DHT22;10615;42.702;23.314;2023-05-18T05:29:26;14.40;99.90
20911;DHT22;10615;42.702;23.314;2023-05-18T05:30:27;14.40;99.90
20911;DHT22;10615;42.702;23.314;2023-05-18T05:31:28;14.40;99.90
20911;DHT22;10615;42.702;23.314;2023-05-18T05:32:29;14.40;99.90
20911;DHT22;10615;42.702;23.314;2023-05-18T05:33:30;14.40;99.90
20911;DHT22;10615;42.702;23.314;2023-05-18T05:34:30;14.40;99.90
20911;DHT22;10615;42.702;23.314;2023-05-18T05:35:31;14.40;99.90
20911;DHT22;10615;42.702;23.314;2023-05-18T05:36:32;14.40;99.90
20911;DHT22;10615;42.702;23.314;2023-05-18T05:37:33;14.40;99.90
20911;DHT22;10615;42.702;23.314;2023-05-18T05:38:34;14.40;99.90
20911;DHT22;10615;42.702;23.314;2023-05-18T05:39:35;14.40;99.90
20911;DHT22;10615;42.702;23.314;2023-05-18T05:40:36;14.40;99.90
20911;DHT22;10615;42.702;23.314;2023-05-18T05:41:38;14.40;99.90
20911;DHT22;10615;42.702;23.314;2023-05-18T05:42:39;14.40;99.90
20911;DHT22;10615;42.702;23.314;2023-05-18T05:43:41;14.40;99.90
20911;DHT22;10615;42.702;23.314;2023-05-18T05:44:42;14.40;99.90
20911;DHT22;10615;42.702;23.314;2023-05-18T05:45:42;14.40;99.90
20911;DHT22;10615;42.702;23.314;2023-05-18T05:46:43;14.40;99.90
20911;DHT22;10615;42.702;23.314;2023-05-18T05:47:44;14.40;99.90
20911;DHT22;10615;42.702;23.314;2023-05-18T05:48:45;14.40;99.90
20911;DHT22;10615;42.702;23.314;2023-05-18T05:49:45;14.50;99.90
20911;DHT22;10615;42.702;23.314;2023-05-18T05:50:46;14.50;99.90
20911;DHT22;10615;42.702;23.314;2023-05-18T05:51:47;14.40;99.90
20911;DHT22;10615;42.702;23.314;2023-05-18T05:52:48;14.40;99.90
20911;DHT22;10615;42.702;23.314;2023-05-18T05:53:49;14.40;99.90
20911;DHT22;10615;42.702;23.314;2023-05-18T05:54:50;14.40;99.90
20911;DHT22;10615;42.702;23.314;2023-05-18T05:55:50;14.40;99.90
20911;DHT22;10615;42.702;23.314;2023-05-18T05:56:51;14.40;99.90
20911;DHT22;10615;42.702;23.314;2023-05-18T05:57:52;14.40;99.90
20911;DHT22;10615;42.702;23.314;2023-05-18T05:58:53;14.40;99.90
20911;DHT22;10615;42.702;23.314;2023-05-18T05:59:53;14.40;99.90
20911;DHT22;10615;42.702;23.314;2023-05-18T06:00:54;14.40;99.90
20911;DHT22;10615;42.702;23.314;2023-05-18T06:01:55;14.40;99.90
20911;DHT22;10615;42.702;23.314;2023-05-18T06:02:56;14.40;99.90
20911;DHT22;10615;42.702;23.314;2023-05-18T06:03:58;14.40;99.90
20911;DHT22;10615;42.702;23.314;2023-05-18T06:04:59;14.50;99.90
20911;DHT22;10615;42.702;23.314;2023-05-18T06:05:59;14.50;99.90
20911;DHT22;10615;42.702;23.314;2023-05-18T06:07:00;14.50;99.90
20911;DHT22;10615;42.702;23.314;2023-05-18T06:08:01;14.50;99.90
20911;DHT22;10615;42.702;23.314;2023-05-18T06:09:01;14.50;99.90
20911;DHT22;10615;42.702;23.314;2023-05-18T06:10:04;14.50;99.90
20911;DHT22;10615;42.702;23.314;2023-05-18T06:11:05;14.50;99.90
20911;DHT22;10615;42.702;23.314;2023-05-18T06:12:06;14.50;99.90
20911;DHT22;10615;42.702;23.314;2023-05-18T06:13:07;14.60;99.90
20911;DHT22;10615;42.702;23.314;2023-05-18T06:14:07;14.60;99.90
20911;DHT22;10615;42.702;23.314;2023-05-18T06:15:08;14.60;99.90
20911;DHT22;10615;42.702;23.314;2023-05-18T06:16:09;14.60;99.90
20911;DHT22;10615;42.702;23.314;2023-05-18T06:17:10;14.60;99.90
20911;DHT22;10615;42.702;23.314;2023-05-18T06:18:11;14.60;99.90
20911;DHT22;10615;42.702;23.314;2023-05-18T06:19:12;14.70;99.90
20911;DHT22;10615;42.702;23.314;2023-05-18T06:20:12;14.70;99.90
20911;DHT22;10615;42.702;23.314;2023-05-18T06:21:14;14.60;99.90
20911;DHT22;10615;42.702;23.314;2023-05-18T06:22:15;14.70;99.90
20911;DHT22;10615;42.702;23.314;2023-05-18T06:23:16;14.70;99.90
20911;DHT22;10615;42.702;23.314;2023-05-18T06:24:21;14.70;99.90
20911;DHT22;10615;42.702;23.314;2023-05-18T06:25:22;14.70;99.90
20911;DHT22;10615;42.702;23.314;2023-05-18T06:26:23;14.70;99.90
20911;DHT22;10615;42.702;23.314;2023-05-18T06:27:24;14.70;99.90
20911;DHT22;10615;42.702;23.314;2023-05-18T06:28:25;14.70;99.90
20911;DHT22;10615;42.702;23.314;2023-05-18T06:29:25;14.70;99.90
20911;DHT22;10615;42.702;23.314;2023-05-18T06:30:26;14.70;99.90
20911;DHT22;10615;42.702;23.314;2023-05-18T06:31:27;14.70;99.90